Time;durP1;ratioP1;P1;durP2;ratioP2;P2;SDS_P1;SDS_P2;PMS_P1;PMS_P2;Temp;Humidity;BMP_temperature;BMP_pressure;BME280_temperature;BME280_humidity;BME280_pressure;Samples;Min_cycle;Max_cycle;Signal;HPM_P1;HPM_P2
2023/04/07 00:00:17;;;;;;;;;;;;;;;5.50;nan;101543.50;4124300;28;19936;-64
2023/04/07 00:02:19;;;;;;;;;;;;;;;5.46;nan;101536.69;4123872;28;20281;-61
2023/04/07 00:04:22;;;;;;;;;;;;;;;5.47;nan;101540.19;4123951;28;20408;-62
2023/04/07 00:06:24;;;;;;;;;;;;;;;5.44;nan;101538.66;4124190;28;20377;-61
2023/04/07 00:08:26;;;;;;;;;;;;;;;5.41;nan;101542.41;4123789;28;19936;-61
2023/04/07 00:10:28;;;;;;;;;;;;;;;5.43;nan;101544.13;4123989;28;20397;-60
2023/04/07 00:12:30;;;;;;;;;;;;;;;5.46;nan;101543.88;4123780;28;19929;-63
2023/04/07 00:14:32;;;;;;;;;;;;;;;5.44;nan;101544.00;4124150;28;19926;-62
2023/04/07 00:16:36;;;;;;;;;;;;;;;5.42;nan;101548.59;4123833;28;20388;-61
2023/04/07 00:18:38;;;;;;;;;;;;;;;5.39;nan;101540.81;4123304;28;19937;-63
2023/04/07 00:20:40;;;;;;;;;;;;;;;5.33;nan;101539.50;4124232;28;19936;-62
2023/04/07 00:22:42;;;;;;;;;;;;;;;5.32;nan;101532.44;4123334;28;20380;-62
2023/04/07 00:24:44;;;;;;;;;;;;;;;5.36;nan;101525.88;4123784;28;19925;-64
2023/04/07 00:26:47;;;;;;;;;;;;;;;5.38;nan;101537.28;4123621;28;19926;-63
2023/04/07 00:28:49;;;;;;;;;;;;;;;5.37;nan;101538.25;4123907;28;19961;-60
2023/04/07 00:30:51;;;;;;;;;;;;;;;5.34;nan;101537.66;4123604;28;19932;-62
2023/04/07 00:32:55;;;;;;;;;;;;;;;5.30;nan;101539.75;4123196;28;19932;-63
2023/04/07 00:34:57;;;;;;;;;;;;;;;5.28;nan;101533.63;4123899;28;19925;-64
2023/04/07 00:37:00;;;;;;;;;;;;;;;5.29;nan;101535.34;4122891;28;19936;-63
2023/04/07 00:39:02;;;;;;;;;;;;;;;5.29;nan;101538.03;4122995;28;19932;-63
2023/04/07 00:41:05;;;;;;;;;;;;;;;5.27;nan;101531.13;4123519;28;19930;-64
2023/04/07 00:43:07;;;;;;;;;;;;;;;5.24;nan;101534.88;4122055;28;19936;-62
2023/04/07 00:45:10;;;;;;;;;;;;;;;5.22;nan;101528.81;4129926;28;20384;-63
2023/04/07 00:47:12;;;;;;;;;;;;;;;5.19;nan;101529.06;4122918;28;19936;-62
2023/04/07 00:49:17;;;;;;;;;;;;;;;5.13;nan;101527.69;4123460;28;19926;-61
2023/04/07 00:51:20;;;;;;;;;;;;;;;5.06;nan;101523.78;4154437;28;19939;-61
2023/04/07 00:53:22;;;;;;;;;;;;;;;4.97;nan;101533.44;4129216;28;20736;-62
2023/04/07 00:55:24;;;;;;;;;;;;;;;4.90;nan;101526.84;4123611;28;20414;-61
2023/04/07 00:57:26;;;;;;;;;;;;;;;4.86;nan;101523.56;4122583;28;19926;-63
2023/04/07 00:59:30;;;;;;;;;;;;;;;4.89;nan;101522.47;4129201;28;19926;-64
2023/04/07 01:01:32;;;;;;;;;;;;;;;4.91;nan;101519.69;4129049;28;19926;-63
2023/04/07 01:03:35;;;;;;;;;;;;;;;4.88;nan;101516.25;4128859;28;19933;-64
2023/04/07 01:05:42;;;;;;;;;;;;;;;4.84;nan;101513.94;4120932;28;19934;-64
2023/04/07 01:07:50;;;;;;;;;;;;;;;4.79;nan;101513.47;4145804;28;19925;-63
2023/04/07 01:09:54;;;;;;;;;;;;;;;4.74;nan;101508.47;4121680;28;19943;-64
2023/04/07 01:11:58;;;;;;;;;;;;;;;4.71;nan;101514.06;4136962;28;19930;-63
2023/04/07 01:14:00;;;;;;;;;;;;;;;4.66;nan;101508.22;4137727;28;19926;-64
2023/04/07 01:16:20;;;;;;;;;;;;;;;4.58;nan;101511.47;4137034;28;19926;-63
2023/04/07 01:18:26;;;;;;;;;;;;;;;4.54;nan;101501.97;4129000;28;19937;-64
2023/04/07 01:20:29;;;;;;;;;;;;;;;4.51;nan;101504.91;4122789;28;19930;-64
2023/04/07 01:22:38;;;;;;;;;;;;;;;4.48;nan;101508.69;4128236;28;20419;-63
2023/04/07 01:24:46;;;;;;;;;;;;;;;4.45;nan;101497.34;4123043;28;19936;-64
2023/04/07 01:26:48;;;;;;;;;;;;;;;4.40;nan;101503.03;4121516;28;19926;-64
2023/04/07 01:29:17;;;;;;;;;;;;;;;4.37;nan;101500.59;4122060;28;20648;-64
2023/04/07 01:31:21;;;;;;;;;;;;;;;4.35;nan;101499.03;4123233;28;19930;-63
2023/04/07 01:33:23;;;;;;;;;;;;;;;4.33;nan;101496.47;4122412;28;19929;-64
2023/04/07 01:35:25;;;;;;;;;;;;;;;4.37;nan;101502.44;4123059;28;19926;-65
2023/04/07 01:37:27;;;;;;;;;;;;;;;4.36;nan;101498.03;4122052;28;19926;-64
2023/04/07 01:39:29;;;;;;;;;;;;;;;4.35;nan;101499.88;4122723;28;19925;-65
2023/04/07 01:41:32;;;;;;;;;;;;;;;4.29;nan;101493.16;4123158;28;19930;-64
2023/04/07 01:43:34;;;;;;;;;;;;;;;4.24;nan;101497.19;4128681;28;20355;-64
2023/04/07 01:45:36;;;;;;;;;;;;;;;4.24;nan;101495.34;4122296;28;19932;-64
2023/04/07 01:47:40;;;;;;;;;;;;;;;4.30;nan;101494.88;4122100;28;19936;-63
2023/04/07 01:49:43;;;;;;;;;;;;;;;4.36;nan;101495.38;4123162;28;19926;-64
2023/04/07 01:51:48;;;;;;;;;;;;;;;4.37;nan;101499.75;4122047;28;20309;-64
2023/04/07 01:53:51;;;;;;;;;;;;;;;4.38;nan;101494.28;4122206;28;20045;-64
2023/04/07 01:55:53;;;;;;;;;;;;;;;4.41;nan;101493.22;4128769;28;19949;-64
2023/04/07 01:57:56;;;;;;;;;;;;;;;4.37;nan;101492.59;4128473;28;19936;-64
2023/04/07 01:59:58;;;;;;;;;;;;;;;4.33;nan;101493.81;4121196;28;19926;-63
2023/04/07 02:02:03;;;;;;;;;;;;;;;4.31;nan;101493.91;4136990;28;19929;-64
2023/04/07 02:04:07;;;;;;;;;;;;;;;4.30;nan;101489.53;4137667;28;19936;-64
2023/04/07 02:06:11;;;;;;;;;;;;;;;4.28;nan;101493.31;4122639;28;19926;-64
2023/04/07 02:08:15;;;;;;;;;;;;;;;4.30;nan;101492.22;4120030;28;19930;-65
2023/04/07 02:10:17;;;;;;;;;;;;;;;4.30;nan;101486.00;4137125;28;20472;-64
2023/04/07 02:12:20;;;;;;;;;;;;;;;4.29;nan;101487.81;4120282;28;19981;-64
2023/04/07 02:14:54;;;;;;;;;;;;;;;4.19;nan;101484.16;4113500;28;19926;-64
2023/04/07 02:16:56;;;;;;;;;;;;;;;4.11;nan;101483.91;4121677;28;19930;-64
2023/04/07 02:18:58;;;;;;;;;;;;;;;4.06;nan;101470.88;4122207;28;19945;-64
2023/04/07 02:21:02;;;;;;;;;;;;;;;4.08;nan;101481.47;4122342;28;19926;-63
2023/04/07 02:23:04;;;;;;;;;;;;;;;4.05;nan;101476.34;4120585;28;19925;-64
2023/04/07 02:25:20;;;;;;;;;;;;;;;3.99;nan;101483.00;4122023;28;19932;-64
2023/04/07 02:27:22;;;;;;;;;;;;;;;3.98;nan;101467.91;4121814;28;19952;-65
2023/04/07 02:29:24;;;;;;;;;;;;;;;4.00;nan;101479.38;4120793;28;19926;-64
2023/04/07 02:31:26;;;;;;;;;;;;;;;4.00;nan;101475.81;4122592;28;20413;-64
2023/04/07 02:33:28;;;;;;;;;;;;;;;4.00;nan;101475.81;4121661;28;19926;-64
2023/04/07 02:35:30;;;;;;;;;;;;;;;4.02;nan;101472.06;4122175;28;20396;-65
2023/04/07 02:37:34;;;;;;;;;;;;;;;4.01;nan;101474.88;4121395;28;19937;-64
2023/04/07 02:39:37;;;;;;;;;;;;;;;3.96;nan;101473.38;4121610;28;19926;-65
2023/04/07 02:41:39;;;;;;;;;;;;;;;3.99;nan;101471.47;4112844;28;19930;-65
2023/04/07 02:43:41;;;;;;;;;;;;;;;4.00;nan;101465.13;4120135;28;20101;-64
2023/04/07 02:45:45;;;;;;;;;;;;;;;3.99;nan;101474.13;4122208;28;19930;-64
2023/04/07 02:47:47;;;;;;;;;;;;;;;3.99;nan;101466.97;4121840;28;19926;-64
2023/04/07 02:49:53;;;;;;;;;;;;;;;4.03;nan;101470.25;4120646;28;19925;-64
2023/04/07 02:51:55;;;;;;;;;;;;;;;4.03;nan;101471.13;4127817;28;20414;-64
2023/04/07 02:53:58;;;;;;;;;;;;;;;4.01;nan;101466.84;4120745;28;20360;-65
2023/04/07 02:56:01;;;;;;;;;;;;;;;3.97;nan;101468.91;4121666;28;19930;-63
2023/04/07 02:58:03;;;;;;;;;;;;;;;3.94;nan;101469.97;4120033;28;19934;-64
2023/04/07 03:00:12;;;;;;;;;;;;;;;3.88;nan;101466.94;4128319;28;19934;-63
2023/04/07 03:02:35;;;;;;;;;;;;;;;3.89;nan;101465.97;4120786;28;20315;-64
2023/04/07 03:04:37;;;;;;;;;;;;;;;3.95;nan;101468.19;4136152;28;19926;-65
2023/04/07 03:06:39;;;;;;;;;;;;;;;3.95;nan;101466.34;4121611;28;19930;-64
2023/04/07 03:08:46;;;;;;;;;;;;;;;3.94;nan;101467.31;4127243;28;19926;-64
2023/04/07 03:10:50;;;;;;;;;;;;;;;3.94;nan;101461.97;4143948;28;20453;-64
2023/04/07 03:12:57;;;;;;;;;;;;;;;3.92;nan;101469.25;4127372;28;19937;-64
2023/04/07 03:14:59;;;;;;;;;;;;;;;3.93;nan;101462.94;4127858;28;20442;-65
2023/04/07 03:17:02;;;;;;;;;;;;;;;3.92;nan;101463.06;4126340;28;20418;-64
2023/04/07 03:19:04;;;;;;;;;;;;;;;3.91;nan;101456.00;4128117;28;19926;-64
2023/04/07 03:21:10;;;;;;;;;;;;;;;3.88;nan;101462.44;4121764;28;19925;-65
2023/04/07 03:23:12;;;;;;;;;;;;;;;3.88;nan;101458.91;4119890;28;19934;-63
2023/04/07 03:25:15;;;;;;;;;;;;;;;3.87;nan;101447.38;4128155;28;19932;-64
2023/04/07 03:27:19;;;;;;;;;;;;;;;3.90;nan;101451.63;4132335;28;20364;-64
2023/04/07 03:29:24;;;;;;;;;;;;;;;3.91;nan;101453.34;4160640;28;19978;-65
2023/04/07 03:31:27;;;;;;;;;;;;;;;3.89;nan;101456.13;4146690;28;20423;-63
2023/04/07 03:33:30;;;;;;;;;;;;;;;3.86;nan;101448.34;4154554;28;19936;-65
2023/04/07 03:35:32;;;;;;;;;;;;;;;3.86;nan;101451.00;4154673;28;19933;-65
2023/04/07 03:37:34;;;;;;;;;;;;;;;3.89;nan;101439.25;4140133;28;19936;-64
2023/04/07 03:39:38;;;;;;;;;;;;;;;3.91;nan;101451.50;4144993;28;19938;-63
2023/04/07 03:41:51;;;;;;;;;;;;;;;3.95;nan;101442.28;4154358;28;19929;-63
2023/04/07 03:43:55;;;;;;;;;;;;;;;3.96;nan;101443.97;4146737;28;19935;-64
2023/04/07 03:45:58;;;;;;;;;;;;;;;4.02;nan;101447.19;4139215;28;19926;-64
2023/04/07 03:48:01;;;;;;;;;;;;;;;4.04;nan;101443.41;4146703;28;19933;-65
2023/04/07 03:50:03;;;;;;;;;;;;;;;4.07;nan;101437.81;4146766;28;19984;-64
2023/04/07 03:52:10;;;;;;;;;;;;;;;4.10;nan;101440.25;4145784;28;19929;-63
2023/04/07 03:54:12;;;;;;;;;;;;;;;4.13;nan;101437.34;4146943;28;19991;-64
2023/04/07 03:56:17;;;;;;;;;;;;;;;4.15;nan;101434.56;4146201;28;19979;-64
2023/04/07 03:58:22;;;;;;;;;;;;;;;4.18;nan;101439.66;4132348;28;19933;-65
2023/04/07 04:00:27;;;;;;;;;;;;;;;4.23;nan;101442.00;4138420;28;19936;-64
2023/04/07 04:02:46;;;;;;;;;;;;;;;4.24;nan;101439.19;4141583;28;19941;-64
2023/04/07 04:04:54;;;;;;;;;;;;;;;4.24;nan;101441.88;4123149;28;19927;-64
2023/04/07 04:06:58;;;;;;;;;;;;;;;4.23;nan;101440.19;4122543;28;19930;-64
2023/04/07 04:09:11;;;;;;;;;;;;;;;4.24;nan;101435.69;4129973;28;19930;-64
2023/04/07 04:11:20;;;;;;;;;;;;;;;4.23;nan;101436.63;4138746;28;19980;-64
2023/04/07 04:13:31;;;;;;;;;;;;;;;4.24;nan;101438.34;4144757;28;19932;-64
2023/04/07 04:15:38;;;;;;;;;;;;;;;4.27;nan;101446.97;4155305;28;19935;-64
2023/04/07 04:17:44;;;;;;;;;;;;;;;4.24;nan;101441.88;4146014;28;19975;-64
2023/04/07 04:19:47;;;;;;;;;;;;;;;4.24;nan;101439.19;4123600;28;19933;-64
2023/04/07 04:22:00;;;;;;;;;;;;;;;4.25;nan;101437.41;4129535;28;19940;-63
2023/04/07 04:24:07;;;;;;;;;;;;;;;4.26;nan;101442.63;4138673;28;19930;-64
2023/04/07 04:26:10;;;;;;;;;;;;;;;4.27;nan;101444.31;4138447;28;19945;-65
2023/04/07 04:28:13;;;;;;;;;;;;;;;4.31;nan;101445.78;4142942;28;19925;-65
2023/04/07 04:30:16;;;;;;;;;;;;;;;4.37;nan;101443.59;4128838;28;19930;-64
2023/04/07 04:32:26;;;;;;;;;;;;;;;4.41;nan;101445.91;4129236;28;19930;-64
2023/04/07 04:34:29;;;;;;;;;;;;;;;4.43;nan;101448.47;4130069;28;20443;-63
2023/04/07 04:36:32;;;;;;;;;;;;;;;4.42;nan;101444.09;4129770;28;20321;-64
2023/04/07 04:38:39;;;;;;;;;;;;;;;4.46;nan;101440.22;4136316;28;20423;-64
2023/04/07 04:40:50;;;;;;;;;;;;;;;4.45;nan;101430.47;4136346;28;19976;-64
2023/04/07 04:42:55;;;;;;;;;;;;;;;4.51;nan;101452.25;4140491;28;19929;-63
2023/04/07 04:44:59;;;;;;;;;;;;;;;4.54;nan;101442.28;4129688;28;19926;-64
2023/04/07 04:47:02;;;;;;;;;;;;;;;4.54;nan;101445.81;4129377;28;20449;-63
2023/04/07 04:49:08;;;;;;;;;;;;;;;4.56;nan;101449.22;4129381;28;19932;-64
2023/04/07 04:51:11;;;;;;;;;;;;;;;4.58;nan;101441.09;4130613;28;19926;-63
2023/04/07 04:53:16;;;;;;;;;;;;;;;4.60;nan;101447.16;4145031;28;20705;-64
2023/04/07 04:55:24;;;;;;;;;;;;;;;4.60;nan;101448.00;4129986;28;19929;-64
2023/04/07 04:57:28;;;;;;;;;;;;;;;4.60;nan;101450.66;4128868;28;19999;-64
2023/04/07 04:59:30;;;;;;;;;;;;;;;4.59;nan;101457.00;4129452;28;20308;-64
2023/04/07 05:01:38;;;;;;;;;;;;;;;4.61;nan;101452.38;4129205;28;19926;-65
2023/04/07 05:03:44;;;;;;;;;;;;;;;4.63;nan;101458.47;4128581;28;21161;-64
2023/04/07 05:05:54;;;;;;;;;;;;;;;4.66;nan;101457.38;4129095;28;20380;-64
2023/04/07 05:07:58;;;;;;;;;;;;;;;4.70;nan;101464.16;4139434;28;19930;-64
2023/04/07 05:10:07;;;;;;;;;;;;;;;4.74;nan;101459.44;4145419;28;19925;-64
2023/04/07 05:12:12;;;;;;;;;;;;;;;4.76;nan;101465.53;4138957;28;20376;-64
2023/04/07 05:14:20;;;;;;;;;;;;;;;4.73;nan;101461.25;4145685;28;20418;-64
2023/04/07 05:16:28;;;;;;;;;;;;;;;4.71;nan;101455.19;4138215;28;20052;-64
2023/04/07 05:18:31;;;;;;;;;;;;;;;4.72;nan;101451.53;4153656;28;20427;-64
2023/04/07 05:20:34;;;;;;;;;;;;;;;4.74;nan;101457.63;4138276;28;19936;-63
2023/04/07 05:22:38;;;;;;;;;;;;;;;4.73;nan;101460.41;4161014;28;19925;-65
2023/04/07 05:24:43;;;;;;;;;;;;;;;4.73;nan;101457.72;4145218;28;19933;-64
2023/04/07 05:26:45;;;;;;;;;;;;;;;4.72;nan;101454.22;4138150;28;19925;-64
2023/04/07 05:28:48;;;;;;;;;;;;;;;4.67;nan;101457.25;4145418;28;19931;-62
2023/04/07 05:30:54;;;;;;;;;;;;;;;4.69;nan;101455.31;4138063;28;20419;-64
2023/04/07 05:33:01;;;;;;;;;;;;;;;4.70;nan;101453.47;4145004;28;19936;-64
2023/04/07 05:35:23;;;;;;;;;;;;;;;4.71;nan;101457.84;4138359;28;19929;-64
2023/04/07 05:37:30;;;;;;;;;;;;;;;4.72;nan;101451.53;4138214;28;19925;-64
2023/04/07 05:39:36;;;;;;;;;;;;;;;4.77;nan;101451.19;4144676;28;20016;-64
2023/04/07 05:41:41;;;;;;;;;;;;;;;4.77;nan;101449.34;4144641;28;20483;-64
2023/04/07 05:43:44;;;;;;;;;;;;;;;4.80;nan;101448.25;4145056;28;20662;-65
2023/04/07 05:45:47;;;;;;;;;;;;;;;4.82;nan;101452.50;4139283;28;19936;-63
2023/04/07 05:47:50;;;;;;;;;;;;;;;4.83;nan;101450.69;4144700;28;20059;-64
2023/04/07 05:49:58;;;;;;;;;;;;;;;4.83;nan;101451.53;4138459;28;19925;-64
2023/04/07 05:52:02;;;;;;;;;;;;;;;4.86;nan;101453.13;4143810;28;19933;-64
2023/04/07 05:54:05;;;;;;;;;;;;;;;4.87;nan;101444.97;4144998;28;19933;-62
2023/04/07 05:56:08;;;;;;;;;;;;;;;4.90;nan;101449.22;4144921;28;19947;-64
2023/04/07 05:58:29;;;;;;;;;;;;;;;4.93;nan;101451.66;4138412;28;20308;-64
2023/04/07 06:00:32;;;;;;;;;;;;;;;4.96;nan;101451.41;4139868;28;19929;-64
2023/04/07 06:02:40;;;;;;;;;;;;;;;4.98;nan;101444.09;4138517;28;19932;-64
2023/04/07 06:04:47;;;;;;;;;;;;;;;5.00;nan;101447.50;4145181;28;19929;-63
2023/04/07 06:06:54;;;;;;;;;;;;;;;5.02;nan;101453.59;4152509;28;20358;-64
2023/04/07 06:08:56;;;;;;;;;;;;;;;5.04;nan;101456.13;4137511;28;19935;-63
2023/04/07 06:11:00;;;;;;;;;;;;;;;5.06;nan;101459.53;4137640;28;19929;-63
2023/04/07 06:13:04;;;;;;;;;;;;;;;5.07;nan;101458.56;4152984;28;19936;-64
2023/04/07 06:15:06;;;;;;;;;;;;;;;5.08;nan;101462.09;4161098;28;19925;-65
2023/04/07 06:17:08;;;;;;;;;;;;;;;5.11;nan;101460.03;4137447;28;19929;-64
2023/04/07 06:19:11;;;;;;;;;;;;;;;5.17;nan;101464.03;4138441;28;20289;-64
2023/04/07 06:21:13;;;;;;;;;;;;;;;5.20;nan;101466.47;4138611;28;19925;-64
2023/04/07 06:23:15;;;;;;;;;;;;;;;5.23;nan;101464.41;4138542;28;20780;-64
2023/04/07 06:25:17;;;;;;;;;;;;;;;5.26;nan;101465.13;4138703;28;19930;-64
2023/04/07 06:27:19;;;;;;;;;;;;;;;5.31;nan;101462.91;4138179;28;19925;-65
2023/04/07 06:29:25;;;;;;;;;;;;;;;5.32;nan;101470.81;4138496;28;19930;-65
2023/04/07 06:31:28;;;;;;;;;;;;;;;5.36;nan;101469.59;4144250;28;19992;-65
2023/04/07 06:33:30;;;;;;;;;;;;;;;5.39;nan;101476.53;4137740;28;19926;-64
2023/04/07 06:35:33;;;;;;;;;;;;;;;5.42;nan;101468.25;4139288;28;19930;-64
2023/04/07 06:37:35;;;;;;;;;;;;;;;5.45;nan;101475.19;4138197;28;19932;-64
2023/04/07 06:39:38;;;;;;;;;;;;;;;5.44;nan;101473.47;4144842;28;20306;-65
2023/04/07 06:41:41;;;;;;;;;;;;;;;5.43;nan;101467.28;4138924;28;19932;-63
2023/04/07 06:43:44;;;;;;;;;;;;;;;5.43;nan;101474.47;4137999;28;21751;-65
2023/04/07 06:45:47;;;;;;;;;;;;;;;5.43;nan;101478.00;4138338;28;19951;-63
2023/04/07 06:47:50;;;;;;;;;;;;;;;5.44;nan;101476.16;4129047;28;20340;-65
2023/04/07 06:49:52;;;;;;;;;;;;;;;5.48;nan;101478.44;4122274;28;20400;-64
2023/04/07 06:51:54;;;;;;;;;;;;;;;5.52;nan;101479.91;4121473;28;20601;-64
2023/04/07 06:53:56;;;;;;;;;;;;;;;5.56;nan;101480.50;4122347;28;19930;-64
2023/04/07 06:56:05;;;;;;;;;;;;;;;5.59;nan;101477.56;4122347;28;19944;-63
2023/04/07 06:58:07;;;;;;;;;;;;;;;5.61;nan;101478.28;4121196;28;19961;-65
2023/04/07 07:00:10;;;;;;;;;;;;;;;5.63;nan;101476.34;4121968;28;19940;-65
2023/04/07 07:02:14;;;;;;;;;;;;;;;5.65;nan;101482.44;4119912;28;19932;-64
2023/04/07 07:04:16;;;;;;;;;;;;;;;5.68;nan;101479.50;4122490;28;19940;-64
2023/04/07 07:06:18;;;;;;;;;;;;;;;5.71;nan;101479.25;4125181;28;19940;-65
2023/04/07 07:08:20;;;;;;;;;;;;;;;5.73;nan;101481.81;4124335;28;19936;-65
2023/04/07 07:10:23;;;;;;;;;;;;;;;5.74;nan;101480.84;4125190;28;19926;-63
2023/04/07 07:12:25;;;;;;;;;;;;;;;5.79;nan;101489.34;4124473;28;19938;-63
2023/04/07 07:14:27;;;;;;;;;;;;;;;5.81;nan;101487.38;4125133;28;20035;-64
2023/04/07 07:16:29;;;;;;;;;;;;;;;5.84;nan;101478.22;4125224;28;19926;-64
2023/04/07 07:18:33;;;;;;;;;;;;;;;5.88;nan;101485.06;4126258;28;19930;-64
2023/04/07 07:20:37;;;;;;;;;;;;;;;5.89;nan;101481.38;4125028;28;20707;-64
2023/04/07 07:22:40;;;;;;;;;;;;;;;5.89;nan;101479.56;4124597;28;19938;-64
2023/04/07 07:24:42;;;;;;;;;;;;;;;5.90;nan;101488.44;4124934;28;19930;-64
2023/04/07 07:26:44;;;;;;;;;;;;;;;5.91;nan;101491.00;4124564;28;20393;-64
2023/04/07 07:28:46;;;;;;;;;;;;;;;5.91;nan;101485.63;4124989;28;19940;-65
2023/04/07 07:30:49;;;;;;;;;;;;;;;5.92;nan;101494.53;4124945;28;19930;-65
2023/04/07 07:32:52;;;;;;;;;;;;;;;5.97;nan;101492.31;4124339;28;19953;-65
2023/04/07 07:34:56;;;;;;;;;;;;;;;6.00;nan;101486.72;4124592;28;20403;-64
2023/04/07 07:36:58;;;;;;;;;;;;;;;6.04;nan;101493.53;4124158;28;20277;-64
2023/04/07 07:39:01;;;;;;;;;;;;;;;6.06;nan;101494.25;4125367;28;19930;-63
2023/04/07 07:41:03;;;;;;;;;;;;;;;6.09;nan;101490.47;4130737;28;19936;-61
2023/04/07 07:43:06;;;;;;;;;;;;;;;6.12;nan;101495.56;4124217;28;19926;-63
2023/04/07 07:45:09;;;;;;;;;;;;;;;6.16;nan;101497.03;4125232;28;19926;-64
2023/04/07 07:47:11;;;;;;;;;;;;;;;6.19;nan;101491.41;4138528;28;19926;-62
2023/04/07 07:49:13;;;;;;;;;;;;;;;6.18;nan;101492.38;4125068;28;20410;-64
2023/04/07 07:51:17;;;;;;;;;;;;;;;6.21;nan;101491.28;4125950;28;19930;-62
2023/04/07 07:53:19;;;;;;;;;;;;;;;6.23;nan;101494.66;4124977;28;19936;-63
2023/04/07 07:55:21;;;;;;;;;;;;;;;6.25;nan;101490.00;4125374;28;19936;-62
2023/04/07 07:57:23;;;;;;;;;;;;;;;6.29;nan;101502.19;4124099;28;19926;-63
2023/04/07 07:59:25;;;;;;;;;;;;;;;6.35;nan;101500.78;4123403;28;20028;-63
2023/04/07 08:01:28;;;;;;;;;;;;;;;6.39;nan;101504.94;4124045;28;19940;-62
2023/04/07 08:03:30;;;;;;;;;;;;;;;6.41;nan;101508.31;4123233;28;20319;-63
2023/04/07 08:05:32;;;;;;;;;;;;;;;6.43;nan;101501.84;4129326;28;19925;-62
2023/04/07 08:07:36;;;;;;;;;;;;;;;6.47;nan;101503.31;4123186;28;19933;-63
2023/04/07 08:09:38;;;;;;;;;;;;;;;6.51;nan;101506.56;4124927;28;19930;-61
2023/04/07 08:11:41;;;;;;;;;;;;;;;6.54;nan;101503.63;4123706;28;19932;-63
2023/04/07 08:13:44;;;;;;;;;;;;;;;6.57;nan;101499.84;4124194;28;19930;-63
2023/04/07 08:15:46;;;;;;;;;;;;;;;6.61;nan;101498.56;4129895;28;19930;-64
2023/04/07 08:17:48;;;;;;;;;;;;;;;6.63;nan;101500.16;4124175;28;19926;-63
2023/04/07 08:19:50;;;;;;;;;;;;;;;6.64;nan;101506.34;4124158;28;19926;-59
2023/04/07 08:21:52;;;;;;;;;;;;;;;6.65;nan;101508.06;4123631;28;19936;-64
2023/04/07 08:23:56;;;;;;;;;;;;;;;6.65;nan;101500.84;4124037;28;19956;-62
2023/04/07 08:25:58;;;;;;;;;;;;;;;6.67;nan;101504.25;4123952;28;19936;-62
2023/04/07 08:28:00;;;;;;;;;;;;;;;6.71;nan;101496.81;4123984;28;19926;-64
2023/04/07 08:30:04;;;;;;;;;;;;;;;6.75;nan;101500.91;4123776;28;19926;-63
2023/04/07 08:32:06;;;;;;;;;;;;;;;6.78;nan;101500.63;4123474;28;19932;-64
2023/04/07 08:34:08;;;;;;;;;;;;;;;6.81;nan;101500.38;4123641;28;19930;-64
2023/04/07 08:36:10;;;;;;;;;;;;;;;6.83;nan;101498.41;4129775;28;19944;-63
2023/04/07 08:38:12;;;;;;;;;;;;;;;6.84;nan;101497.41;4123542;28;19932;-64
2023/04/07 08:40:16;;;;;;;;;;;;;;;6.86;nan;101499.97;4123981;28;20398;-63
2023/04/07 08:42:18;;;;;;;;;;;;;;;6.88;nan;101499.84;4122982;28;19952;-62
2023/04/07 08:44:20;;;;;;;;;;;;;;;6.91;nan;101504.94;4123934;28;19927;-64
2023/04/07 08:46:23;;;;;;;;;;;;;;;6.94;nan;101510.03;4123506;28;19952;-63
2023/04/07 08:48:27;;;;;;;;;;;;;;;6.97;nan;101515.16;4121358;28;19936;-64
2023/04/07 08:50:29;;;;;;;;;;;;;;;6.98;nan;101511.50;4122316;28;20533;-61
2023/04/07 08:52:33;;;;;;;;;;;;;;;6.99;nan;101518.53;4122194;28;19936;-64
2023/04/07 08:54:35;;;;;;;;;;;;;;;7.00;nan;101521.09;4123014;28;20316;-63
2023/04/07 08:56:40;;;;;;;;;;;;;;;6.97;nan;101524.03;4123056;28;19934;-64
2023/04/07 08:58:42;;;;;;;;;;;;;;;6.97;nan;101524.03;4122996;28;20268;-63
2023/04/07 09:00:47;;;;;;;;;;;;;;;6.97;nan;101518.66;4123544;28;19933;-64
2023/04/07 09:02:50;;;;;;;;;;;;;;;6.98;nan;101520.38;4122826;28;19940;-64
2023/04/07 09:04:52;;;;;;;;;;;;;;;7.01;nan;101519.28;4123011;28;19937;-63
2023/04/07 09:06:54;;;;;;;;;;;;;;;7.02;nan;101529.88;4122039;28;19925;-62
2023/04/07 09:08:57;;;;;;;;;;;;;;;7.01;nan;101522.81;4123437;28;19929;-63
2023/04/07 09:10:59;;;;;;;;;;;;;;;7.02;nan;101523.66;4123037;28;19930;-64
2023/04/07 09:13:02;;;;;;;;;;;;;;;7.02;nan;101518.28;4144711;28;19975;-63
2023/04/07 09:15:05;;;;;;;;;;;;;;;7.01;nan;101522.81;4123376;28;20319;-63
2023/04/07 09:17:08;;;;;;;;;;;;;;;7.03;nan;101530.72;4122503;28;19952;-62
2023/04/07 09:19:10;;;;;;;;;;;;;;;7.02;nan;101519.13;4122552;28;20422;-64
2023/04/07 09:21:12;;;;;;;;;;;;;;;7.02;nan;101523.66;4122452;28;20637;-62
2023/04/07 09:23:18;;;;;;;;;;;;;;;7.01;nan;101521.97;4122026;28;19930;-63
2023/04/07 09:25:22;;;;;;;;;;;;;;;6.99;nan;101527.47;4123134;28;19932;-64
2023/04/07 09:27:24;;;;;;;;;;;;;;;7.01;nan;101527.34;4121793;28;20270;-63
2023/04/07 09:29:28;;;;;;;;;;;;;;;7.00;nan;101534.53;4122639;28;19926;-64
2023/04/07 09:31:43;;;;;;;;;;;;;;;7.00;nan;101536.38;4122954;28;19926;-63
2023/04/07 09:33:45;;;;;;;;;;;;;;;6.97;nan;101539.31;4138143;28;20302;-61
2023/04/07 09:35:52;;;;;;;;;;;;;;;6.95;nan;101533.25;4138889;28;19932;-63
2023/04/07 09:38:03;;;;;;;;;;;;;;;6.92;nan;101546.94;4128518;28;19926;-62
2023/04/07 09:40:06;;;;;;;;;;;;;;;6.92;nan;101536.19;4122715;28;19930;-63
2023/04/07 09:42:08;;;;;;;;;;;;;;;6.91;nan;101537.16;4122001;28;19930;-63
2023/04/07 09:44:10;;;;;;;;;;;;;;;6.90;nan;101530.13;4122643;28;19930;-61
2023/04/07 09:46:15;;;;;;;;;;;;;;;6.89;nan;101533.78;4128619;28;19932;-63
2023/04/07 09:48:18;;;;;;;;;;;;;;;6.88;nan;101532.94;4122429;28;20506;-63
2023/04/07 09:50:31;;;;;;;;;;;;;;;6.87;nan;101538.44;4122250;28;19933;-63
2023/04/07 09:52:48;;;;;;;;;;;;;;;6.84;nan;101536.84;4121851;28;19936;-64
2023/04/07 09:54:50;;;;;;;;;;;;;;;6.85;nan;101538.56;4122567;28;19929;-63
2023/04/07 09:56:53;;;;;;;;;;;;;;;6.87;nan;101539.28;4121347;28;19930;-60
2023/04/07 09:58:55;;;;;;;;;;;;;;;6.90;nan;101538.16;4122176;28;20440;-62
2023/04/07 10:00:57;;;;;;;;;;;;;;;6.90;nan;101538.16;4122240;28;19926;-64
2023/04/07 10:03:02;;;;;;;;;;;;;;;6.91;nan;101542.53;4121421;28;19930;-62
2023/04/07 10:05:04;;;;;;;;;;;;;;;6.90;nan;101546.22;4122347;28;19936;-63
2023/04/07 10:07:06;;;;;;;;;;;;;;;6.88;nan;101535.63;4121673;28;19953;-63
2023/04/07 10:09:09;;;;;;;;;;;;;;;6.90;nan;101540.84;4122034;28;19930;-63
2023/04/07 10:11:11;;;;;;;;;;;;;;;6.89;nan;101544.50;4122231;28;19933;-61
2023/04/07 10:13:13;;;;;;;;;;;;;;;6.87;nan;101547.34;4121714;28;19926;-63
2023/04/07 10:15:15;;;;;;;;;;;;;;;6.86;nan;101540.25;4122048;28;19926;-60
2023/04/07 10:17:19;;;;;;;;;;;;;;;6.85;nan;101539.41;4121619;28;19930;-60
2023/04/07 10:19:22;;;;;;;;;;;;;;;6.86;nan;101537.56;4121343;28;19941;-62
2023/04/07 10:21:26;;;;;;;;;;;;;;;6.87;nan;101538.44;4142846;28;19932;-63
2023/04/07 10:23:34;;;;;;;;;;;;;;;6.87;nan;101531.22;4120726;28;19934;-62
2023/04/07 10:25:36;;;;;;;;;;;;;;;6.88;nan;101537.44;4120998;28;20269;-61
2023/04/07 10:27:40;;;;;;;;;;;;;;;6.88;nan;101542.81;4120866;28;19934;-63
2023/04/07 10:29:42;;;;;;;;;;;;;;;6.84;nan;101537.69;4122900;28;19926;-63
2023/04/07 10:31:44;;;;;;;;;;;;;;;6.82;nan;101537.00;4120956;28;19937;-64
2023/04/07 10:33:48;;;;;;;;;;;;;;;6.81;nan;101539.81;4121754;28;19930;-65
2023/04/07 10:36:04;;;;;;;;;;;;;;;6.79;nan;101534.56;4121103;28;20286;-66
2023/04/07 10:38:12;;;;;;;;;;;;;;;6.82;nan;101537.00;4123082;28;19926;-64
2023/04/07 10:40:30;;;;;;;;;;;;;;;6.83;nan;101535.16;4126673;28;19926;-65
2023/04/07 10:42:44;;;;;;;;;;;;;;;6.86;nan;101537.56;4124348;28;19929;-65
2023/04/07 10:44:48;;;;;;;;;;;;;;;6.87;nan;101533.06;4126051;28;19934;-64
2023/04/07 10:47:02;;;;;;;;;;;;;;;6.88;nan;101532.06;4125733;28;19967;-64
2023/04/07 10:49:08;;;;;;;;;;;;;;;6.87;nan;101531.22;4123149;28;20329;-63
2023/04/07 10:51:18;;;;;;;;;;;;;;;6.90;nan;101533.63;4124607;28;19934;-64
2023/04/07 10:53:20;;;;;;;;;;;;;;;6.92;nan;101534.34;4124225;28;19950;-64
2023/04/07 10:55:32;;;;;;;;;;;;;;;6.94;nan;101539.59;4124700;28;19933;-65
2023/04/07 10:57:34;;;;;;;;;;;;;;;6.96;nan;101530.41;4123650;28;19925;-64
2023/04/07 10:59:37;;;;;;;;;;;;;;;6.98;nan;101533.81;4125755;28;19925;-65
2023/04/07 11:01:40;;;;;;;;;;;;;;;7.00;nan;101537.22;4124353;28;19930;-65
2023/04/07 11:03:52;;;;;;;;;;;;;;;7.02;nan;101539.75;4123359;28;20344;-66